sensor_id;sensor_type;location;lat;lon;timestamp;P1;durP1;ratioP1;P2;durP2;ratioP2
438;SDS011;206;48.782;9.252;2023-06-26T00:01:28;11.73;;;9.63;;
438;SDS011;206;48.782;9.252;2023-06-26T00:03:55;9.30;;;8.80;;
438;SDS011;206;48.782;9.252;2023-06-26T00:06:22;10.83;;;9.80;;
438;SDS011;206;48.782;9.252;2023-06-26T00:08:51;8.97;;;8.47;;
438;SDS011;206;48.782;9.252;2023-06-26T00:11:18;9.50;;;9.00;;
438;SDS011;206;48.782;9.252;2023-06-26T00:13:44;10.73;;;8.90;;
438;SDS011;206;48.782;9.252;2023-06-26T00:16:09;8.53;;;8.07;;
438;SDS011;206;48.782;9.252;2023-06-26T00:18:35;9.13;;;8.63;;
438;SDS011;206;48.782;9.252;2023-06-26T00:21:01;9.47;;;8.83;;
438;SDS011;206;48.782;9.252;2023-06-26T00:23:26;10.00;;;9.50;;
438;SDS011;206;48.782;9.252;2023-06-26T00:25:56;9.13;;;8.60;;
438;SDS011;206;48.782;9.252;2023-06-26T00:28:21;9.33;;;8.27;;
438;SDS011;206;48.782;9.252;2023-06-26T00:30:47;10.50;;;8.90;;
438;SDS011;206;48.782;9.252;2023-06-26T00:33:12;10.17;;;9.60;;
438;SDS011;206;48.782;9.252;2023-06-26T00:35:38;9.80;;;8.90;;
438;SDS011;206;48.782;9.252;2023-06-26T00:38:04;9.90;;;8.80;;
438;SDS011;206;48.782;9.252;2023-06-26T00:40:29;10.47;;;9.80;;
438;SDS011;206;48.782;9.252;2023-06-26T00:42:55;10.07;;;9.53;;
438;SDS011;206;48.782;9.252;2023-06-26T00:45:20;10.03;;;9.53;;
438;SDS011;206;48.782;9.252;2023-06-26T00:47:46;9.90;;;9.40;;
438;SDS011;206;48.782;9.252;2023-06-26T00:50:13;9.47;;;8.97;;
438;SDS011;206;48.782;9.252;2023-06-26T00:52:40;9.50;;;9.00;;
438;SDS011;206;48.782;9.252;2023-06-26T00:55:06;11.20;;;10.60;;
438;SDS011;206;48.782;9.252;2023-06-26T00:57:32;9.90;;;8.90;;
438;SDS011;206;48.782;9.252;2023-06-26T00:59:58;14.93;;;11.13;;
438;SDS011;206;48.782;9.252;2023-06-26T01:02:25;10.23;;;9.20;;
438;SDS011;206;48.782;9.252;2023-06-26T01:04:58;8.77;;;8.27;;
438;SDS011;206;48.782;9.252;2023-06-26T01:07:24;11.80;;;10.20;;
438;SDS011;206;48.782;9.252;2023-06-26T01:09:50;10.83;;;9.93;;
438;SDS011;206;48.782;9.252;2023-06-26T01:12:16;11.87;;;10.17;;
438;SDS011;206;48.782;9.252;2023-06-26T01:14:42;10.20;;;9.70;;
438;SDS011;206;48.782;9.252;2023-06-26T01:17:07;13.10;;;10.23;;
438;SDS011;206;48.782;9.252;2023-06-26T01:19:39;10.90;;;10.30;;
438;SDS011;206;48.782;9.252;2023-06-26T01:22:23;9.40;;;8.43;;
438;SDS011;206;48.782;9.252;2023-06-26T01:27:48;11.03;;;9.33;;
438;SDS011;206;48.782;9.252;2023-06-26T01:30:17;10.40;;;9.90;;
438;SDS011;206;48.782;9.252;2023-06-26T01:32:44;10.53;;;9.60;;
438;SDS011;206;48.782;9.252;2023-06-26T01:35:11;12.53;;;10.70;;
438;SDS011;206;48.782;9.252;2023-06-26T01:37:37;10.73;;;9.17;;
438;SDS011;206;48.782;9.252;2023-06-26T01:40:03;13.17;;;10.10;;
438;SDS011;206;48.782;9.252;2023-06-26T01:42:32;11.63;;;10.93;;
438;SDS011;206;48.782;9.252;2023-06-26T01:44:59;12.23;;;10.93;;
438;SDS011;206;48.782;9.252;2023-06-26T01:47:32;11.40;;;10.57;;
438;SDS011;206;48.782;9.252;2023-06-26T01:50:16;14.17;;;10.43;;
438;SDS011;206;48.782;9.252;2023-06-26T01:52:49;11.17;;;9.20;;
438;SDS011;206;48.782;9.252;2023-06-26T01:58:05;13.77;;;12.60;;
438;SDS011;206;48.782;9.252;2023-06-26T02:00:31;10.47;;;9.93;;
438;SDS011;206;48.782;9.252;2023-06-26T02:02:58;16.60;;;11.30;;
438;SDS011;206;48.782;9.252;2023-06-26T02:05:24;12.40;;;11.77;;
438;SDS011;206;48.782;9.252;2023-06-26T02:07:49;15.73;;;11.10;;
438;SDS011;206;48.782;9.252;2023-06-26T02:10:16;11.60;;;11.00;;
438;SDS011;206;48.782;9.252;2023-06-26T02:12:42;12.83;;;10.97;;
438;SDS011;206;48.782;9.252;2023-06-26T02:15:08;13.30;;;11.10;;
438;SDS011;206;48.782;9.252;2023-06-26T02:17:33;13.23;;;10.70;;
438;SDS011;206;48.782;9.252;2023-06-26T02:19:59;11.57;;;10.97;;
438;SDS011;206;48.782;9.252;2023-06-26T02:22:25;14.13;;;11.80;;
438;SDS011;206;48.782;9.252;2023-06-26T02:24:50;12.50;;;11.80;;
438;SDS011;206;48.782;9.252;2023-06-26T02:27:16;13.93;;;11.50;;
438;SDS011;206;48.782;9.252;2023-06-26T02:29:42;13.73;;;11.97;;
438;SDS011;206;48.782;9.252;2023-06-26T02:32:08;13.63;;;11.73;;
438;SDS011;206;48.782;9.252;2023-06-26T02:34:34;13.53;;;10.60;;
438;SDS011;206;48.782;9.252;2023-06-26T02:37:00;14.83;;;11.60;;
438;SDS011;206;48.782;9.252;2023-06-26T02:39:26;16.70;;;13.63;;
438;SDS011;206;48.782;9.252;2023-06-26T02:41:52;12.37;;;11.83;;
438;SDS011;206;48.782;9.252;2023-06-26T02:44:18;14.53;;;11.20;;
438;SDS011;206;48.782;9.252;2023-06-26T02:46:44;12.13;;;11.13;;
438;SDS011;206;48.782;9.252;2023-06-26T02:49:09;11.20;;;10.57;;
438;SDS011;206;48.782;9.252;2023-06-26T02:51:35;12.70;;;10.90;;
438;SDS011;206;48.782;9.252;2023-06-26T02:54:00;10.23;;;9.70;;
438;SDS011;206;48.782;9.252;2023-06-26T02:56:26;12.23;;;11.17;;
438;SDS011;206;48.782;9.252;2023-06-26T02:58:54;11.63;;;10.03;;
438;SDS011;206;48.782;9.252;2023-06-26T03:01:23;13.43;;;10.63;;
438;SDS011;206;48.782;9.252;2023-06-26T03:03:48;11.73;;;10.10;;
438;SDS011;206;48.782;9.252;2023-06-26T03:06:14;13.20;;;10.67;;
438;SDS011;206;48.782;9.252;2023-06-26T03:08:40;13.20;;;11.47;;
438;SDS011;206;48.782;9.252;2023-06-26T03:11:06;12.30;;;11.70;;
438;SDS011;206;48.782;9.252;2023-06-26T03:13:32;13.00;;;10.67;;
438;SDS011;206;48.782;9.252;2023-06-26T03:15:59;13.40;;;11.57;;
438;SDS011;206;48.782;9.252;2023-06-26T03:18:25;16.43;;;12.40;;
438;SDS011;206;48.782;9.252;2023-06-26T03:20:51;14.50;;;10.70;;
438;SDS011;206;48.782;9.252;2023-06-26T03:23:19;13.00;;;11.87;;
438;SDS011;206;48.782;9.252;2023-06-26T03:25:45;14.37;;;10.60;;
438;SDS011;206;48.782;9.252;2023-06-26T03:28:11;14.93;;;11.17;;
438;SDS011;206;48.782;9.252;2023-06-26T03:30:36;15.00;;;11.93;;
438;SDS011;206;48.782;9.252;2023-06-26T03:33:02;12.50;;;11.20;;
438;SDS011;206;48.782;9.252;2023-06-26T03:35:28;12.07;;;11.20;;
438;SDS011;206;48.782;9.252;2023-06-26T03:37:53;11.40;;;10.60;;
438;SDS011;206;48.782;9.252;2023-06-26T03:40:19;13.13;;;11.70;;
438;SDS011;206;48.782;9.252;2023-06-26T03:42:45;12.30;;;11.37;;
438;SDS011;206;48.782;9.252;2023-06-26T03:45:10;16.40;;;12.30;;
438;SDS011;206;48.782;9.252;2023-06-26T03:47:36;17.23;;;12.47;;
438;SDS011;206;48.782;9.252;2023-06-26T03:50:01;12.93;;;12.30;;
438;SDS011;206;48.782;9.252;2023-06-26T03:52:27;13.50;;;11.53;;
438;SDS011;206;48.782;9.252;2023-06-26T03:54:55;13.97;;;12.47;;
438;SDS011;206;48.782;9.252;2023-06-26T03:57:24;12.33;;;11.13;;
438;SDS011;206;48.782;9.252;2023-06-26T03:59:50;12.17;;;11.60;;
438;SDS011;206;48.782;9.252;2023-06-26T04:02:16;11.47;;;10.23;;
438;SDS011;206;48.782;9.252;2023-06-26T04:04:42;12.47;;;11.50;;
438;SDS011;206;48.782;9.252;2023-06-26T04:07:07;13.13;;;11.40;;
438;SDS011;206;48.782;9.252;2023-06-26T04:09:33;16.90;;;11.97;;
438;SDS011;206;48.782;9.252;2023-06-26T04:11:58;13.33;;;10.97;;
438;SDS011;206;48.782;9.252;2023-06-26T04:14:24;11.10;;;10.40;;
438;SDS011;206;48.782;9.252;2023-06-26T04:16:49;14.70;;;11.00;;
438;SDS011;206;48.782;9.252;2023-06-26T04:19:15;13.10;;;11.87;;
438;SDS011;206;48.782;9.252;2023-06-26T04:21:41;11.87;;;10.03;;
438;SDS011;206;48.782;9.252;2023-06-26T04:24:07;12.90;;;10.70;;
438;SDS011;206;48.782;9.252;2023-06-26T04:26:32;13.13;;;11.47;;
438;SDS011;206;48.782;9.252;2023-06-26T04:28:58;15.47;;;11.20;;
438;SDS011;206;48.782;9.252;2023-06-26T04:31:24;13.30;;;12.00;;
438;SDS011;206;48.782;9.252;2023-06-26T04:33:50;11.30;;;10.70;;
438;SDS011;206;48.782;9.252;2023-06-26T04:36:16;14.93;;;10.83;;
438;SDS011;206;48.782;9.252;2023-06-26T04:38:42;11.47;;;10.90;;
438;SDS011;206;48.782;9.252;2023-06-26T04:41:07;19.40;;;10.97;;
438;SDS011;206;48.782;9.252;2023-06-26T04:43:33;16.00;;;11.90;;
438;SDS011;206;48.782;9.252;2023-06-26T04:45:59;12.50;;;10.63;;
438;SDS011;206;48.782;9.252;2023-06-26T04:48:24;11.00;;;10.40;;
438;SDS011;206;48.782;9.252;2023-06-26T04:50:52;15.17;;;10.30;;
438;SDS011;206;48.782;9.252;2023-06-26T04:53:21;13.37;;;9.43;;
438;SDS011;206;48.782;9.252;2023-06-26T04:55:48;10.00;;;8.80;;
438;SDS011;206;48.782;9.252;2023-06-26T04:58:14;12.40;;;9.27;;
438;SDS011;206;48.782;9.252;2023-06-26T05:00:40;10.30;;;9.80;;
438;SDS011;206;48.782;9.252;2023-06-26T05:03:08;10.53;;;9.00;;
438;SDS011;206;48.782;9.252;2023-06-26T05:05:34;10.07;;;9.57;;
438;SDS011;206;48.782;9.252;2023-06-26T05:08:12;10.80;;;8.77;;
438;SDS011;206;48.782;9.252;2023-06-26T05:10:42;11.93;;;10.10;;
438;SDS011;206;48.782;9.252;2023-06-26T05:13:07;10.13;;;9.53;;
438;SDS011;206;48.782;9.252;2023-06-26T05:15:33;10.30;;;9.10;;
438;SDS011;206;48.782;9.252;2023-06-26T05:17:59;11.10;;;8.93;;
438;SDS011;206;48.782;9.252;2023-06-26T05:20:24;10.03;;;8.60;;
438;SDS011;206;48.782;9.252;2023-06-26T05:22:50;10.80;;;8.57;;
438;SDS011;206;48.782;9.252;2023-06-26T05:25:16;9.13;;;8.57;;
438;SDS011;206;48.782;9.252;2023-06-26T05:27:43;9.27;;;7.50;;
438;SDS011;206;48.782;9.252;2023-06-26T05:30:09;9.80;;;9.33;;
438;SDS011;206;48.782;9.252;2023-06-26T05:32:37;11.20;;;9.60;;
438;SDS011;206;48.782;9.252;2023-06-26T05:35:04;10.97;;;8.47;;
438;SDS011;206;48.782;9.252;2023-06-26T05:37:31;10.53;;;8.70;;
438;SDS011;206;48.782;9.252;2023-06-26T05:39:58;10.40;;;9.40;;
438;SDS011;206;48.782;9.252;2023-06-26T05:42:24;8.90;;;8.40;;
438;SDS011;206;48.782;9.252;2023-06-26T05:44:51;9.40;;;8.37;;
438;SDS011;206;48.782;9.252;2023-06-26T05:47:16;8.77;;;8.00;;
438;SDS011;206;48.782;9.252;2023-06-26T05:49:42;10.27;;;8.50;;
438;SDS011;206;48.782;9.252;2023-06-26T05:52:07;9.23;;;8.13;;
438;SDS011;206;48.782;9.252;2023-06-26T05:54:34;7.87;;;7.27;;
438;SDS011;206;48.782;9.252;2023-06-26T05:57:00;8.83;;;7.80;;
438;SDS011;206;48.782;9.252;2023-06-26T05:59:26;7.67;;;7.27;;
438;SDS011;206;48.782;9.252;2023-06-26T06:01:52;8.13;;;7.73;;
438;SDS011;206;48.782;9.252;2023-06-26T06:04:17;13.60;;;8.03;;
438;SDS011;206;48.782;9.252;2023-06-26T06:06:43;9.17;;;7.60;;
438;SDS011;206;48.782;9.252;2023-06-26T06:09:09;10.17;;;8.00;;
438;SDS011;206;48.782;9.252;2023-06-26T06:11:34;7.90;;;7.50;;
438;SDS011;206;48.782;9.252;2023-06-26T06:14:00;9.23;;;8.00;;
438;SDS011;206;48.782;9.252;2023-06-26T06:16:26;9.17;;;8.13;;
438;SDS011;206;48.782;9.252;2023-06-26T06:18:54;8.83;;;7.77;;
438;SDS011;206;48.782;9.252;2023-06-26T06:21:19;8.60;;;8.10;;
438;SDS011;206;48.782;9.252;2023-06-26T06:23:45;9.67;;;7.17;;
438;SDS011;206;48.782;9.252;2023-06-26T06:26:11;7.60;;;7.00;;
438;SDS011;206;48.782;9.252;2023-06-26T06:28:37;8.40;;;7.87;;
438;SDS011;206;48.782;9.252;2023-06-26T06:31:04;8.20;;;7.83;;
438;SDS011;206;48.782;9.252;2023-06-26T06:33:29;8.00;;;7.60;;
438;SDS011;206;48.782;9.252;2023-06-26T06:35:55;8.80;;;7.73;;
438;SDS011;206;48.782;9.252;2023-06-26T06:38:20;12.63;;;9.37;;
438;SDS011;206;48.782;9.252;2023-06-26T06:40:46;7.73;;;7.33;;
438;SDS011;206;48.782;9.252;2023-06-26T06:43:12;12.80;;;8.70;;
438;SDS011;206;48.782;9.252;2023-06-26T06:45:37;8.60;;;7.87;;
438;SDS011;206;48.782;9.252;2023-06-26T06:48:03;8.73;;;7.93;;
438;SDS011;206;48.782;9.252;2023-06-26T06:50:29;7.83;;;7.33;;
438;SDS011;206;48.782;9.252;2023-06-26T06:52:55;9.93;;;7.90;;
438;SDS011;206;48.782;9.252;2023-06-26T06:55:21;9.33;;;8.83;;
438;SDS011;206;48.782;9.252;2023-06-26T06:57:47;12.87;;;7.93;;
438;SDS011;206;48.782;9.252;2023-06-26T07:00:13;8.13;;;7.73;;
438;SDS011;206;48.782;9.252;2023-06-26T07:02:41;8.13;;;7.43;;
438;SDS011;206;48.782;9.252;2023-06-26T07:05:08;12.13;;;8.00;;
438;SDS011;206;48.782;9.252;2023-06-26T07:07:35;8.03;;;7.63;;
438;SDS011;206;48.782;9.252;2023-06-26T07:10:05;9.57;;;8.20;;
438;SDS011;206;48.782;9.252;2023-06-26T07:12:35;11.07;;;7.73;;
438;SDS011;206;48.782;9.252;2023-06-26T07:15:02;7.70;;;7.30;;
438;SDS011;206;48.782;9.252;2023-06-26T07:17:29;8.47;;;7.63;;
438;SDS011;206;48.782;9.252;2023-06-26T07:19:55;11.73;;;7.57;;
438;SDS011;206;48.782;9.252;2023-06-26T07:22:21;10.90;;;7.90;;
438;SDS011;206;48.782;9.252;2023-06-26T07:24:48;7.23;;;6.83;;
438;SDS011;206;48.782;9.252;2023-06-26T07:27:16;9.90;;;7.43;;
438;SDS011;206;48.782;9.252;2023-06-26T07:29:43;9.63;;;7.27;;
438;SDS011;206;48.782;9.252;2023-06-26T07:32:08;8.10;;;7.70;;
438;SDS011;206;48.782;9.252;2023-06-26T07:34:34;8.30;;;7.17;;
438;SDS011;206;48.782;9.252;2023-06-26T07:37:00;6.97;;;6.57;;
438;SDS011;206;48.782;9.252;2023-06-26T07:39:26;8.20;;;7.80;;
438;SDS011;206;48.782;9.252;2023-06-26T07:41:51;10.70;;;6.30;;
438;SDS011;206;48.782;9.252;2023-06-26T07:44:17;10.60;;;7.33;;
438;SDS011;206;48.782;9.252;2023-06-26T07:46:42;7.23;;;6.83;;
438;SDS011;206;48.782;9.252;2023-06-26T07:49:09;8.43;;;6.83;;
438;SDS011;206;48.782;9.252;2023-06-26T07:51:35;8.23;;;7.00;;
438;SDS011;206;48.782;9.252;2023-06-26T07:54:01;8.77;;;7.80;;
438;SDS011;206;48.782;9.252;2023-06-26T07:56:26;7.30;;;6.90;;
438;SDS011;206;48.782;9.252;2023-06-26T07:58:52;20.13;;;9.47;;
438;SDS011;206;48.782;9.252;2023-06-26T08:01:18;9.83;;;8.23;;
438;SDS011;206;48.782;9.252;2023-06-26T08:03:43;14.57;;;8.60;;
438;SDS011;206;48.782;9.252;2023-06-26T08:06:09;8.90;;;7.57;;
438;SDS011;206;48.782;9.252;2023-06-26T08:08:35;10.53;;;7.60;;
438;SDS011;206;48.782;9.252;2023-06-26T08:11:00;7.30;;;6.90;;
438;SDS011;206;48.782;9.252;2023-06-26T08:13:26;11.67;;;7.13;;
438;SDS011;206;48.782;9.252;2023-06-26T08:15:52;9.13;;;7.60;;
438;SDS011;206;48.782;9.252;2023-06-26T08:18:18;9.53;;;8.40;;
438;SDS011;206;48.782;9.252;2023-06-26T08:20:43;7.30;;;6.93;;
438;SDS011;206;48.782;9.252;2023-06-26T08:23:09;8.43;;;7.47;;
438;SDS011;206;48.782;9.252;2023-06-26T08:25:35;11.03;;;7.43;;
438;SDS011;206;48.782;9.252;2023-06-26T08:28:00;7.37;;;6.97;;
438;SDS011;206;48.782;9.252;2023-06-26T08:30:26;10.03;;;7.17;;
438;SDS011;206;48.782;9.252;2023-06-26T08:32:56;9.47;;;6.90;;
438;SDS011;206;48.782;9.252;2023-06-26T08:35:21;11.50;;;6.53;;
438;SDS011;206;48.782;9.252;2023-06-26T08:37:47;8.47;;;7.10;;
438;SDS011;206;48.782;9.252;2023-06-26T08:40:13;10.50;;;7.10;;
438;SDS011;206;48.782;9.252;2023-06-26T08:42:42;7.03;;;6.60;;
438;SDS011;206;48.782;9.252;2023-06-26T08:45:08;7.70;;;6.40;;
438;SDS011;206;48.782;9.252;2023-06-26T08:47:34;6.80;;;6.20;;
438;SDS011;206;48.782;9.252;2023-06-26T08:50:07;6.73;;;6.33;;
438;SDS011;206;48.782;9.252;2023-06-26T08:55:19;11.60;;;5.67;;
438;SDS011;206;48.782;9.252;2023-06-26T08:57:49;6.77;;;6.37;;
438;SDS011;206;48.782;9.252;2023-06-26T09:00:16;6.63;;;6.27;;
438;SDS011;206;48.782;9.252;2023-06-26T09:02:42;7.63;;;6.20;;
438;SDS011;206;48.782;9.252;2023-06-26T09:05:09;6.00;;;5.67;;
438;SDS011;206;48.782;9.252;2023-06-26T09:07:34;7.80;;;6.40;;
438;SDS011;206;48.782;9.252;2023-06-26T09:10:00;9.07;;;5.80;;
438;SDS011;206;48.782;9.252;2023-06-26T09:12:26;8.10;;;6.57;;
438;SDS011;206;48.782;9.252;2023-06-26T09:14:53;6.43;;;6.03;;
438;SDS011;206;48.782;9.252;2023-06-26T09:17:24;6.27;;;5.93;;
438;SDS011;206;48.782;9.252;2023-06-26T09:19:51;6.00;;;5.70;;
438;SDS011;206;48.782;9.252;2023-06-26T09:22:17;6.63;;;5.73;;
438;SDS011;206;48.782;9.252;2023-06-26T09:24:43;6.30;;;5.30;;
438;SDS011;206;48.782;9.252;2023-06-26T09:27:09;6.40;;;5.80;;
438;SDS011;206;48.782;9.252;2023-06-26T09:29:35;9.47;;;6.90;;
438;SDS011;206;48.782;9.252;2023-06-26T09:32:01;8.20;;;6.87;;
438;SDS011;206;48.782;9.252;2023-06-26T09:34:30;8.50;;;6.30;;
438;SDS011;206;48.782;9.252;2023-06-26T09:36:57;5.70;;;5.40;;
438;SDS011;206;48.782;9.252;2023-06-26T09:39:23;7.17;;;5.83;;
438;SDS011;206;48.782;9.252;2023-06-26T09:41:49;9.43;;;5.63;;
438;SDS011;206;48.782;9.252;2023-06-26T09:44:15;10.70;;;6.23;;
438;SDS011;206;48.782;9.252;2023-06-26T09:46:42;5.10;;;4.80;;
438;SDS011;206;48.782;9.252;2023-06-26T09:49:11;5.83;;;5.40;;
438;SDS011;206;48.782;9.252;2023-06-26T09:51:38;8.20;;;5.40;;
438;SDS011;206;48.782;9.252;2023-06-26T09:54:05;8.80;;;6.53;;
438;SDS011;206;48.782;9.252;2023-06-26T09:56:32;5.80;;;5.53;;
438;SDS011;206;48.782;9.252;2023-06-26T09:58:59;5.50;;;5.20;;
438;SDS011;206;48.782;9.252;2023-06-26T10:01:26;5.80;;;5.50;;
438;SDS011;206;48.782;9.252;2023-06-26T10:03:53;5.67;;;5.37;;
438;SDS011;206;48.782;9.252;2023-06-26T10:06:20;7.60;;;5.10;;
438;SDS011;206;48.782;9.252;2023-06-26T10:08:51;5.93;;;5.63;;
438;SDS011;206;48.782;9.252;2023-06-26T10:11:19;5.83;;;5.53;;
438;SDS011;206;48.782;9.252;2023-06-26T10:13:47;6.20;;;5.27;;
438;SDS011;206;48.782;9.252;2023-06-26T10:16:20;7.70;;;6.23;;
438;SDS011;206;48.782;9.252;2023-06-26T10:18:52;6.83;;;6.10;;
438;SDS011;206;48.782;9.252;2023-06-26T10:21:20;5.43;;;5.13;;
438;SDS011;206;48.782;9.252;2023-06-26T10:23:47;8.30;;;5.47;;
438;SDS011;206;48.782;9.252;2023-06-26T10:26:14;9.63;;;6.40;;
438;SDS011;206;48.782;9.252;2023-06-26T10:28:42;7.80;;;5.80;;
438;SDS011;206;48.782;9.252;2023-06-26T10:31:10;11.63;;;5.90;;
438;SDS011;206;48.782;9.252;2023-06-26T10:33:37;9.00;;;6.20;;
438;SDS011;206;48.782;9.252;2023-06-26T10:36:16;7.57;;;6.90;;
438;SDS011;206;48.782;9.252;2023-06-26T10:38:50;7.80;;;7.40;;
438;SDS011;206;48.782;9.252;2023-06-26T10:41:20;9.00;;;6.10;;
438;SDS011;206;48.782;9.252;2023-06-26T10:46:50;9.87;;;7.43;;
438;SDS011;206;48.782;9.252;2023-06-26T10:49:21;7.53;;;7.13;;
438;SDS011;206;48.782;9.252;2023-06-26T10:51:51;9.23;;;7.00;;
438;SDS011;206;48.782;9.252;2023-06-26T10:54:17;8.13;;;7.23;;
438;SDS011;206;48.782;9.252;2023-06-26T10:56:44;7.30;;;6.77;;
438;SDS011;206;48.782;9.252;2023-06-26T11:01:41;8.47;;;7.37;;
438;SDS011;206;48.782;9.252;2023-06-26T11:04:10;10.63;;;8.17;;
438;SDS011;206;48.782;9.252;2023-06-26T11:06:37;7.67;;;6.87;;
438;SDS011;206;48.782;9.252;2023-06-26T11:09:07;7.13;;;6.77;;
438;SDS011;206;48.782;9.252;2023-06-26T11:11:55;7.33;;;6.50;;
438;SDS011;206;48.782;9.252;2023-06-26T11:14:25;8.90;;;6.50;;
438;SDS011;206;48.782;9.252;2023-06-26T11:16:52;9.63;;;7.13;;
438;SDS011;206;48.782;9.252;2023-06-26T11:19:20;10.93;;;7.37;;
438;SDS011;206;48.782;9.252;2023-06-26T11:21:46;10.10;;;7.20;;
438;SDS011;206;48.782;9.252;2023-06-26T11:24:12;7.63;;;7.27;;
438;SDS011;206;48.782;9.252;2023-06-26T11:26:41;11.43;;;6.43;;
438;SDS011;206;48.782;9.252;2023-06-26T11:29:08;9.97;;;6.67;;
438;SDS011;206;48.782;9.252;2023-06-26T11:31:35;9.00;;;7.40;;
438;SDS011;206;48.782;9.252;2023-06-26T11:34:08;6.60;;;6.20;;
438;SDS011;206;48.782;9.252;2023-06-26T11:36:36;6.83;;;6.43;;
438;SDS011;206;48.782;9.252;2023-06-26T11:39:06;7.50;;;7.10;;
438;SDS011;206;48.782;9.252;2023-06-26T11:41:33;6.87;;;6.50;;
438;SDS011;206;48.782;9.252;2023-06-26T11:44:04;8.40;;;7.20;;
438;SDS011;206;48.782;9.252;2023-06-26T11:46:31;8.20;;;6.87;;
438;SDS011;206;48.782;9.252;2023-06-26T11:48:58;10.83;;;7.20;;
438;SDS011;206;48.782;9.252;2023-06-26T11:51:26;10.13;;;7.80;;
438;SDS011;206;48.782;9.252;2023-06-26T11:53:52;7.20;;;6.73;;
438;SDS011;206;48.782;9.252;2023-06-26T11:56:18;9.33;;;6.60;;
438;SDS011;206;48.782;9.252;2023-06-26T11:59:00;6.80;;;6.40;;
438;SDS011;206;48.782;9.252;2023-06-26T12:01:33;8.50;;;7.13;;
438;SDS011;206;48.782;9.252;2023-06-26T12:04:09;10.70;;;7.37;;
438;SDS011;206;48.782;9.252;2023-06-26T12:06:37;10.70;;;6.60;;
438;SDS011;206;48.782;9.252;2023-06-26T12:09:05;9.60;;;7.50;;
438;SDS011;206;48.782;9.252;2023-06-26T12:11:34;12.10;;;6.67;;
438;SDS011;206;48.782;9.252;2023-06-26T12:14:01;9.80;;;7.10;;
438;SDS011;206;48.782;9.252;2023-06-26T12:16:28;7.33;;;6.93;;
438;SDS011;206;48.782;9.252;2023-06-26T12:18:59;13.93;;;6.00;;
438;SDS011;206;48.782;9.252;2023-06-26T12:24:02;7.97;;;6.77;;
438;SDS011;206;48.782;9.252;2023-06-26T12:26:29;8.20;;;7.17;;
438;SDS011;206;48.782;9.252;2023-06-26T12:29:02;10.70;;;7.20;;
438;SDS011;206;48.782;9.252;2023-06-26T12:31:29;8.43;;;6.50;;
438;SDS011;206;48.782;9.252;2023-06-26T12:33:58;9.10;;;7.83;;
438;SDS011;206;48.782;9.252;2023-06-26T12:36:25;11.07;;;7.33;;
438;SDS011;206;48.782;9.252;2023-06-26T12:38:52;8.43;;;7.73;;
438;SDS011;206;48.782;9.252;2023-06-26T12:41:19;11.33;;;6.60;;
438;SDS011;206;48.782;9.252;2023-06-26T12:43:45;10.40;;;6.77;;
438;SDS011;206;48.782;9.252;2023-06-26T12:46:11;14.73;;;6.37;;
438;SDS011;206;48.782;9.252;2023-06-26T12:48:43;13.80;;;8.03;;
438;SDS011;206;48.782;9.252;2023-06-26T12:51:15;7.47;;;6.10;;
438;SDS011;206;48.782;9.252;2023-06-26T12:53:41;8.83;;;7.20;;
438;SDS011;206;48.782;9.252;2023-06-26T12:56:07;7.23;;;6.13;;
438;SDS011;206;48.782;9.252;2023-06-26T12:58:34;6.60;;;6.20;;
438;SDS011;206;48.782;9.252;2023-06-26T13:01:02;9.00;;;6.17;;
438;SDS011;206;48.782;9.252;2023-06-26T13:03:29;8.53;;;6.80;;
438;SDS011;206;48.782;9.252;2023-06-26T13:05:55;11.40;;;6.77;;
438;SDS011;206;48.782;9.252;2023-06-26T13:08:21;8.50;;;7.43;;
438;SDS011;206;48.782;9.252;2023-06-26T13:10:47;8.03;;;6.50;;
438;SDS011;206;48.782;9.252;2023-06-26T13:13:12;12.63;;;8.27;;
438;SDS011;206;48.782;9.252;2023-06-26T13:15:38;31.30;;;6.63;;
438;SDS011;206;48.782;9.252;2023-06-26T13:18:03;9.00;;;6.47;;
438;SDS011;206;48.782;9.252;2023-06-26T13:20:29;8.00;;;5.77;;
438;SDS011;206;48.782;9.252;2023-06-26T13:23:12;9.47;;;6.40;;
438;SDS011;206;48.782;9.252;2023-06-26T13:25:38;6.00;;;5.70;;
438;SDS011;206;48.782;9.252;2023-06-26T13:28:04;7.27;;;6.87;;
438;SDS011;206;48.782;9.252;2023-06-26T13:30:29;11.50;;;7.00;;
438;SDS011;206;48.782;9.252;2023-06-26T13:32:55;7.80;;;6.10;;
438;SDS011;206;48.782;9.252;2023-06-26T13:35:20;5.63;;;5.23;;
438;SDS011;206;48.782;9.252;2023-06-26T13:37:46;6.10;;;5.53;;
438;SDS011;206;48.782;9.252;2023-06-26T13:40:12;7.17;;;6.10;;
438;SDS011;206;48.782;9.252;2023-06-26T13:42:38;7.40;;;6.00;;
438;SDS011;206;48.782;9.252;2023-06-26T13:45:04;6.20;;;5.90;;
438;SDS011;206;48.782;9.252;2023-06-26T13:47:30;7.40;;;5.40;;
438;SDS011;206;48.782;9.252;2023-06-26T13:49:56;7.13;;;6.10;;
438;SDS011;206;48.782;9.252;2023-06-26T13:52:22;6.43;;;6.10;;
438;SDS011;206;48.782;9.252;2023-06-26T13:54:48;6.93;;;5.90;;
438;SDS011;206;48.782;9.252;2023-06-26T13:57:14;6.20;;;5.90;;
438;SDS011;206;48.782;9.252;2023-06-26T13:59:40;10.20;;;6.10;;
438;SDS011;206;48.782;9.252;2023-06-26T14:02:06;7.50;;;5.80;;
438;SDS011;206;48.782;9.252;2023-06-26T14:04:32;11.70;;;5.77;;
438;SDS011;206;48.782;9.252;2023-06-26T14:06:58;8.70;;;5.70;;
438;SDS011;206;48.782;9.252;2023-06-26T14:09:23;7.40;;;5.00;;
438;SDS011;206;48.782;9.252;2023-06-26T14:11:49;5.70;;;5.17;;
438;SDS011;206;48.782;9.252;2023-06-26T14:14:15;5.90;;;4.83;;
438;SDS011;206;48.782;9.252;2023-06-26T14:16:40;7.17;;;5.10;;
438;SDS011;206;48.782;9.252;2023-06-26T14:19:07;5.23;;;4.93;;
438;SDS011;206;48.782;9.252;2023-06-26T14:21:33;5.40;;;5.10;;
438;SDS011;206;48.782;9.252;2023-06-26T14:23:59;6.07;;;4.80;;
438;SDS011;206;48.782;9.252;2023-06-26T14:26:25;5.00;;;4.77;;
438;SDS011;206;48.782;9.252;2023-06-26T14:28:51;4.97;;;4.40;;
438;SDS011;206;48.782;9.252;2023-06-26T14:31:16;12.17;;;5.60;;
438;SDS011;206;48.782;9.252;2023-06-26T14:33:42;6.83;;;5.40;;
438;SDS011;206;48.782;9.252;2023-06-26T14:36:08;5.07;;;4.60;;
438;SDS011;206;48.782;9.252;2023-06-26T14:38:33;7.97;;;4.43;;
438;SDS011;206;48.782;9.252;2023-06-26T14:40:59;6.43;;;3.70;;
438;SDS011;206;48.782;9.252;2023-06-26T14:43:24;10.50;;;4.27;;
438;SDS011;206;48.782;9.252;2023-06-26T14:45:50;5.63;;;4.10;;
438;SDS011;206;48.782;9.252;2023-06-26T14:48:15;4.93;;;4.27;;
438;SDS011;206;48.782;9.252;2023-06-26T14:50:41;7.03;;;3.90;;
438;SDS011;206;48.782;9.252;2023-06-26T14:53:07;6.67;;;3.97;;
438;SDS011;206;48.782;9.252;2023-06-26T14:55:32;5.87;;;3.43;;
438;SDS011;206;48.782;9.252;2023-06-26T14:57:58;6.07;;;3.60;;
438;SDS011;206;48.782;9.252;2023-06-26T15:00:23;6.90;;;4.60;;
438;SDS011;206;48.782;9.252;2023-06-26T15:02:49;6.23;;;3.53;;
438;SDS011;206;48.782;9.252;2023-06-26T15:05:18;5.97;;;4.83;;
438;SDS011;206;48.782;9.252;2023-06-26T15:07:44;9.23;;;4.30;;
438;SDS011;206;48.782;9.252;2023-06-26T15:10:09;4.73;;;4.30;;
438;SDS011;206;48.782;9.252;2023-06-26T15:12:35;4.77;;;4.10;;
438;SDS011;206;48.782;9.252;2023-06-26T15:15:01;5.60;;;3.43;;
438;SDS011;206;48.782;9.252;2023-06-26T15:17:26;4.27;;;4.00;;
438;SDS011;206;48.782;9.252;2023-06-26T15:19:52;6.10;;;3.97;;
438;SDS011;206;48.782;9.252;2023-06-26T15:22:17;3.77;;;3.20;;
438;SDS011;206;48.782;9.252;2023-06-26T15:24:43;4.10;;;3.90;;
438;SDS011;206;48.782;9.252;2023-06-26T15:27:09;9.13;;;4.33;;
438;SDS011;206;48.782;9.252;2023-06-26T15:29:34;9.10;;;5.00;;
438;SDS011;206;48.782;9.252;2023-06-26T15:32:00;5.90;;;4.50;;
438;SDS011;206;48.782;9.252;2023-06-26T15:34:26;5.90;;;4.70;;
438;SDS011;206;48.782;9.252;2023-06-26T15:36:51;15.93;;;5.93;;
438;SDS011;206;48.782;9.252;2023-06-26T15:39:17;8.20;;;5.30;;
438;SDS011;206;48.782;9.252;2023-06-26T15:41:43;7.20;;;5.93;;
438;SDS011;206;48.782;9.252;2023-06-26T15:44:09;5.63;;;4.80;;
438;SDS011;206;48.782;9.252;2023-06-26T15:46:35;6.13;;;5.07;;
438;SDS011;206;48.782;9.252;2023-06-26T15:49:00;8.47;;;5.20;;